createdAt,value
2022-09-23T00:01:03.407Z,67.23
2022-09-23T00:03:31.500Z,66.90
2022-09-23T00:06:03.400Z,67.23
2022-09-23T00:08:30.531Z,66.82
2022-09-23T00:10:57.295Z,67.82
2022-09-23T00:13:24.782Z,67.60
2022-09-23T00:15:52.196Z,67.61
2022-09-23T00:18:20.695Z,68.69
2022-09-23T00:20:47.254Z,67.80
2022-09-23T00:23:13.817Z,68.25
2022-09-23T00:25:40.223Z,68.74
2022-09-23T00:28:06.591Z,69.17
2022-09-23T00:30:33.023Z,69.73
2022-09-23T00:33:00.251Z,68.09
2022-09-23T00:35:26.730Z,67.91
2022-09-23T00:37:53.095Z,68.23
2022-09-23T00:40:19.587Z,68.92
2022-09-23T00:42:51.956Z,68.27
2022-09-23T00:45:19.340Z,68.35
2022-09-23T00:47:59.017Z,69.14
2022-09-23T00:50:36.236Z,68.44
2022-09-23T00:53:15.864Z,68.45
2022-09-23T00:55:52.935Z,68.45
2022-09-23T00:58:23.569Z,68.50
2022-09-23T01:00:50.124Z,69.39
2022-09-23T01:03:16.484Z,69.40
2022-09-23T01:05:42.962Z,69.76
2022-09-23T01:08:12.860Z,70.05
2022-09-23T01:11:20.605Z,70.81
2022-09-23T01:14:26.317Z,70.47
2022-09-23T01:16:58.589Z,69.85
2022-09-23T01:19:27.954Z,70.42
2022-09-23T01:22:01.956Z,70.43
2022-09-23T01:24:47.123Z,70.55
2022-09-23T01:28:01.347Z,71.77
2022-09-23T01:30:55.374Z,71.80
2022-09-23T01:33:30.440Z,72.91
2022-09-23T01:36:13.871Z,72.56
2022-09-23T01:38:40.171Z,72.28
2022-09-23T01:41:16.152Z,72.54
2022-09-23T01:43:58.235Z,72.99
2022-09-23T01:46:30.449Z,73.32
2022-09-23T01:49:12.633Z,73.83
2022-09-23T01:51:43.997Z,73.65
2022-09-23T01:54:46.235Z,74.52
2022-09-23T01:57:16.071Z,75.47
2022-09-23T01:59:50.947Z,75.17
2022-09-23T02:02:28.342Z,75.56
2022-09-23T02:05:00.493Z,74.76
2022-09-23T02:07:57.293Z,74.92
2022-09-23T02:10:42.060Z,75.75
2022-09-23T02:13:16.948Z,75.53
2022-09-23T02:15:51.525Z,75.64
2022-09-23T02:18:24.665Z,75.61
2022-09-23T02:20:54.684Z,75.33
2022-09-23T02:23:25.448Z,76.09
2022-09-23T02:26:02.962Z,76.45
2022-09-23T02:28:51.694Z,76.93
2022-09-23T02:31:33.132Z,77.50
2022-09-23T02:34:17.408Z,77.06
2022-09-23T02:37:07.108Z,77.30
2022-09-23T02:39:48.872Z,77.23
2022-09-23T02:42:22.003Z,77.36
2022-09-23T02:44:48.662Z,76.94
2022-09-23T02:47:19.126Z,76.96
2022-09-23T02:49:45.644Z,77.10
2022-09-23T02:52:13.665Z,77.53
2022-09-23T02:54:40.666Z,77.91
2022-09-23T02:57:08.249Z,77.34
2022-09-23T02:59:35.852Z,77.98
2022-09-23T03:02:24.208Z,78.15
2022-09-23T03:05:00.097Z,77.83
2022-09-23T03:08:00.332Z,78.13
2022-09-23T03:10:35.135Z,79.18
2022-09-23T03:13:40.809Z,79.23
2022-09-23T03:16:40.734Z,79.80
2022-09-23T03:19:47.772Z,78.81
2022-09-23T03:22:22.542Z,80.05
2022-09-23T03:24:54.005Z,80.26
2022-09-23T03:27:25.839Z,80.50
2022-09-23T03:29:54.054Z,80.99
2022-09-23T03:32:24.744Z,81.38
2022-09-23T03:34:53.843Z,80.30
2022-09-23T03:37:31.352Z,81.47
2022-09-23T03:40:12.217Z,82.06
2022-09-23T03:42:39.759Z,80.96
2022-09-23T03:45:13.004Z,81.90
2022-09-23T03:47:39.539Z,81.65
2022-09-23T03:50:06.509Z,81.63
2022-09-23T03:52:32.956Z,81.32
2022-09-23T03:54:59.445Z,81.26
2022-09-23T03:57:25.819Z,80.78
2022-09-23T03:59:52.550Z,82.65
2022-09-23T04:02:19.825Z,83.82
2022-09-23T04:04:46.798Z,82.70
2022-09-23T04:07:13.674Z,83.15
2022-09-23T04:09:40.457Z,83.41
2022-09-23T04:12:07.631Z,83.91
2022-09-23T04:14:34.039Z,83.79
2022-09-23T04:17:00.422Z,83.36
2022-09-23T04:19:26.790Z,82.64
2022-09-23T04:21:53.206Z,83.84
2022-09-23T04:24:19.752Z,82.99
2022-09-23T04:26:46.164Z,83.89
2022-09-23T04:29:12.551Z,83.54
2022-09-23T04:31:39.054Z,84.17
2022-09-23T04:34:05.540Z,83.79
2022-09-23T04:36:32.003Z,86.14
2022-09-23T04:38:58.501Z,86.61
2022-09-23T04:41:24.919Z,86.64
2022-09-23T04:43:51.303Z,85.14
2022-09-23T04:46:17.968Z,86.14
2022-09-23T04:48:44.790Z,85.77
2022-09-23T04:51:12.925Z,85.63
2022-09-23T04:53:41.526Z,85.14
2022-09-23T04:56:11.636Z,85.85
2022-09-23T04:58:39.195Z,85.81
2022-09-23T05:01:17.208Z,86.22
2022-09-23T05:03:44.708Z,86.20
2022-09-23T05:06:16.326Z,87.11
2022-09-23T05:08:49.221Z,86.70
2022-09-23T05:11:16.452Z,86.97
2022-09-23T05:13:42.793Z,86.33
2022-09-23T05:16:12.471Z,86.57
2022-09-23T05:18:42.759Z,86.07
2022-09-23T05:21:14.520Z,86.99
2022-09-23T05:23:41.949Z,87.19
2022-09-23T05:26:11.646Z,87.40
2022-09-23T05:28:39.417Z,87.01
2022-09-23T05:31:19.939Z,86.84
2022-09-23T05:33:49.754Z,87.12
2022-09-23T05:36:17.871Z,87.02
2022-09-23T05:38:45.106Z,87.30
2022-09-23T05:41:13.428Z,88.85
2022-09-23T05:43:40.287Z,87.40
2022-09-23T05:46:18.225Z,88.03
2022-09-23T05:48:46.215Z,87.61
2022-09-23T05:51:32.316Z,87.25
2022-09-23T05:53:59.880Z,87.29
2022-09-23T05:56:27.938Z,86.94
2022-09-23T05:58:56.652Z,87.81
2022-09-23T06:01:27.992Z,86.87
2022-09-23T06:03:56.303Z,87.89
2022-09-23T06:06:38.041Z,87.71
2022-09-23T06:09:05.824Z,88.26
2022-09-23T06:11:34.700Z,87.12
2022-09-23T06:14:02.997Z,87.19
2022-09-23T06:16:32.199Z,87.16
2022-09-23T06:19:05.139Z,87.51
2022-09-23T06:21:34.010Z,86.53
2022-09-23T06:24:00.858Z,87.58
2022-09-23T06:26:28.378Z,86.74
2022-09-23T06:28:54.746Z,86.85
2022-09-23T06:31:21.156Z,87.21
2022-09-23T06:33:50.252Z,87.30
2022-09-23T06:36:33.906Z,86.98
2022-09-23T06:39:03.704Z,87.52
2022-09-23T06:41:30.085Z,86.73
2022-09-23T06:43:56.418Z,87.72
2022-09-23T06:46:22.812Z,87.13
2022-09-23T06:48:51.075Z,87.03
2022-09-23T06:51:21.652Z,88.01
2022-09-23T06:53:49.088Z,88.02
2022-09-23T06:56:17.311Z,87.93
2022-09-23T06:58:43.842Z,87.71
2022-09-23T07:01:13.175Z,87.14
2022-09-23T07:03:39.645Z,86.66
2022-09-23T07:06:08.022Z,86.98
2022-09-23T07:08:35.128Z,86.41
2022-09-23T07:11:04.584Z,86.54
2022-09-23T07:13:33.287Z,85.88
2022-09-23T07:16:02.064Z,85.18
2022-09-23T07:18:36.739Z,85.66
2022-09-23T07:21:15.895Z,85.44
2022-09-23T07:23:43.460Z,85.92
2022-09-23T07:26:10.350Z,85.24
2022-09-23T07:28:37.343Z,84.99
2022-09-23T07:31:06.798Z,84.73
2022-09-23T07:33:35.708Z,83.27
2022-09-23T07:36:10.897Z,84.96
2022-09-23T07:38:41.543Z,82.39
2022-09-23T07:41:13.590Z,82.00
2022-09-23T07:43:40.802Z,82.26
2022-09-23T07:46:11.060Z,82.36
2022-09-23T07:48:38.601Z,81.27
2022-09-23T07:51:21.071Z,81.15
2022-09-23T07:53:49.088Z,81.51
2022-09-23T07:56:17.235Z,81.70
2022-09-23T07:58:43.647Z,81.28
2022-09-23T08:01:12.027Z,82.32
2022-09-23T08:03:39.356Z,82.58
2022-09-23T08:06:08.273Z,83.21
2022-09-23T08:08:35.607Z,83.34
2022-09-23T08:11:04.007Z,82.32
2022-09-23T08:13:30.892Z,82.83
2022-09-23T08:15:58.162Z,83.42
2022-09-23T08:18:25.076Z,83.51
2022-09-23T08:20:52.147Z,84.00
2022-09-23T08:23:20.989Z,83.14
2022-09-23T08:25:48.053Z,82.77
2022-09-23T08:28:19.109Z,82.69
2022-09-23T08:30:48.731Z,82.58
2022-09-23T08:33:19.676Z,81.58
2022-09-23T08:35:49.253Z,82.21
2022-09-23T08:38:15.695Z,82.09
2022-09-23T08:40:44.999Z,81.76
2022-09-23T08:43:32.769Z,81.55
2022-09-23T08:46:05.201Z,81.02
2022-09-23T08:48:43.160Z,80.25
2022-09-23T08:51:23.655Z,78.68
2022-09-23T08:53:50.295Z,77.75
2022-09-23T08:56:19.872Z,77.41
2022-09-23T08:58:53.347Z,76.63
2022-09-23T09:01:38.014Z,76.54
2022-09-23T09:04:14.496Z,75.28
2022-09-23T09:06:53.048Z,75.12
2022-09-23T09:09:26.997Z,75.99
2022-09-23T09:12:02.144Z,73.54
2022-09-23T09:14:43.713Z,71.16
2022-09-23T09:17:16.510Z,71.05
2022-09-23T09:19:48.437Z,70.14
2022-09-23T09:22:21.423Z,69.88
2022-09-23T09:24:49.744Z,70.12
2022-09-23T09:27:16.319Z,70.90
2022-09-23T09:29:49.780Z,71.58
2022-09-23T09:32:46.196Z,70.36
2022-09-23T09:35:35.076Z,68.38
2022-09-23T09:38:01.869Z,67.60
2022-09-23T09:40:28.361Z,67.84
2022-09-23T09:42:54.871Z,66.35
2022-09-23T09:45:30.063Z,64.51
2022-09-23T09:48:12.418Z,64.23
2022-09-23T09:50:52.950Z,65.04
2022-09-23T09:53:39.526Z,61.91
2022-09-23T09:56:08.714Z,61.51
2022-09-23T09:58:37.321Z,59.68
2022-09-23T10:01:05.511Z,59.47
2022-09-23T10:03:41.368Z,58.99
2022-09-23T10:06:20.755Z,60.08
2022-09-23T10:09:08.773Z,59.57
2022-09-23T10:11:35.567Z,58.97
2022-09-23T10:14:13.959Z,57.91
2022-09-23T10:16:41.971Z,57.84
2022-09-23T10:19:24.542Z,60.21
2022-09-23T10:21:59.839Z,60.18
2022-09-23T10:24:30.465Z,60.46
2022-09-23T10:27:01.577Z,60.63
2022-09-23T10:29:38.828Z,62.02
2022-09-23T10:32:25.832Z,63.02
2022-09-23T10:35:16.801Z,64.70
2022-09-23T10:37:57.783Z,63.46
2022-09-23T10:40:49.198Z,63.56
2022-09-23T10:43:43.563Z,63.37
2022-09-23T10:46:37.977Z,63.77
2022-09-23T10:49:24.540Z,64.91
2022-09-23T10:52:16.997Z,63.48
2022-09-23T10:55:02.101Z,63.18
2022-09-23T10:57:50.981Z,65.08
2022-09-23T11:00:25.672Z,65.17
2022-09-23T11:03:17.466Z,66.76
2022-09-23T11:05:59.040Z,65.28
2022-09-23T11:08:50.967Z,65.47
2022-09-23T11:11:40.454Z,65.45
2022-09-23T11:14:16.781Z,67.97
2022-09-23T11:17:14.615Z,64.29
2022-09-23T11:20:23.026Z,64.49
2022-09-23T11:23:08.061Z,66.24
2022-09-23T11:25:40.973Z,65.58
2022-09-23T11:28:10.211Z,66.55
2022-09-23T11:31:05.579Z,67.63
2022-09-23T11:33:55.644Z,65.28
2022-09-23T11:36:32.725Z,65.39
2022-09-23T11:39:01.394Z,65.32
2022-09-23T11:41:36.075Z,64.39
2022-09-23T11:44:16.005Z,62.30
2022-09-23T11:46:46.594Z,61.28
2022-09-23T11:49:30.461Z,61.01
2022-09-23T11:52:14.248Z,61.88
2022-09-23T11:54:49.538Z,61.57
2022-09-23T11:57:49.754Z,61.08
2022-09-23T12:00:23.013Z,61.39
2022-09-23T12:03:15.597Z,62.03
2022-09-23T12:05:47.558Z,61.01
2022-09-23T12:08:39.461Z,60.75
2022-09-23T12:11:30.565Z,61.36
2022-09-23T12:14:19.282Z,60.68
2022-09-23T12:16:55.166Z,62.16
2022-09-23T12:19:55.446Z,60.04
2022-09-23T12:22:40.836Z,62.52
2022-09-23T12:25:26.572Z,61.81
2022-09-23T12:27:55.945Z,60.58
2022-09-23T12:30:27.846Z,59.48
2022-09-23T12:33:14.749Z,59.50
2022-09-23T12:35:45.318Z,60.38
2022-09-23T12:38:14.728Z,60.22
2022-09-23T12:40:44.483Z,59.99
2022-09-23T12:43:18.865Z,59.08
2022-09-23T12:45:45.627Z,58.65
2022-09-23T12:48:17.999Z,58.66
2022-09-23T12:51:02.838Z,59.04
2022-09-23T12:53:53.405Z,58.80
2022-09-23T12:56:29.752Z,59.83
2022-09-23T12:59:01.706Z,60.41
2022-09-23T13:01:35.325Z,59.82
2022-09-23T13:04:20.593Z,60.39
2022-09-23T13:07:05.043Z,61.08
2022-09-23T13:09:37.482Z,61.21
2022-09-23T13:12:08.480Z,60.17
2022-09-23T13:14:37.809Z,60.46
2022-09-23T13:17:04.515Z,59.59
2022-09-23T13:19:35.345Z,59.33
2022-09-23T13:22:09.357Z,61.05
2022-09-23T13:24:44.361Z,58.67
2022-09-23T13:27:33.282Z,58.57
2022-09-23T13:30:07.775Z,60.14
2022-09-23T13:32:45.151Z,60.47
2022-09-23T13:35:32.608Z,60.34
2022-09-23T13:37:59.047Z,61.78
2022-09-23T13:40:29.004Z,60.51
2022-09-23T13:43:05.030Z,61.80
2022-09-23T13:45:32.357Z,59.41
2022-09-23T13:48:07.276Z,59.54
2022-09-23T13:50:38.391Z,59.21
2022-09-23T13:53:10.436Z,58.92
2022-09-23T13:55:39.106Z,58.42
2022-09-23T13:58:20.454Z,59.66
2022-09-23T14:00:47.666Z,58.96
2022-09-23T14:03:36.543Z,59.55
2022-09-23T14:06:12.826Z,59.77
2022-09-23T14:08:43.722Z,59.16
2022-09-23T14:11:16.153Z,59.24
2022-09-23T14:13:43.897Z,60.75
2022-09-23T14:16:14.872Z,60.02
2022-09-23T14:18:45.592Z,61.51
2022-09-23T14:21:49.512Z,61.02
2022-09-23T14:24:33.626Z,61.51
2022-09-23T14:27:15.659Z,61.80
2022-09-23T14:29:47.754Z,62.79
2022-09-23T14:32:18.753Z,62.64
2022-09-23T14:35:04.981Z,62.15
2022-09-23T14:38:00.763Z,61.93
2022-09-23T14:40:30.228Z,61.86
2022-09-23T14:43:11.102Z,63.71
2022-09-23T14:45:39.972Z,64.20
2022-09-23T14:48:14.549Z,62.61
2022-09-23T14:50:49.500Z,62.70
2022-09-23T14:53:24.687Z,62.13
2022-09-23T14:56:07.286Z,62.61
2022-09-23T14:58:54.850Z,64.14
2022-09-23T15:01:41.621Z,64.49
2022-09-23T15:04:14.088Z,64.24
2022-09-23T15:06:44.836Z,64.61
2022-09-23T15:09:20.092Z,65.63
2022-09-23T15:11:47.120Z,65.63
2022-09-23T15:14:36.593Z,66.54
2022-09-23T15:17:02.444Z,66.05
2022-09-23T15:19:31.501Z,65.75
2022-09-23T15:21:57.973Z,66.66
2022-09-23T15:24:44.984Z,67.13
2022-09-23T15:27:22.523Z,66.32
2022-09-23T15:29:50.091Z,67.70
2022-09-23T15:32:16.665Z,67.58
2022-09-23T15:34:43.045Z,66.73
2022-09-23T15:37:12.559Z,68.04
2022-09-23T15:39:38.925Z,68.58
2022-09-23T15:42:07.125Z,68.81
2022-09-23T15:44:33.620Z,68.32
2022-09-23T15:47:01.045Z,68.89
2022-09-23T15:49:39.100Z,68.49
2022-09-23T15:52:07.114Z,69.40
2022-09-23T15:54:33.760Z,69.08
2022-09-23T15:57:01.061Z,69.14
2022-09-23T15:59:28.666Z,69.75
2022-09-23T16:01:56.754Z,71.07
2022-09-23T16:04:23.659Z,71.59
2022-09-23T16:06:50.026Z,71.43
2022-09-23T16:09:16.465Z,71.19
2022-09-23T16:11:46.109Z,71.74
2022-09-23T16:14:19.226Z,72.90
2022-09-23T16:16:47.731Z,73.27
2022-09-23T16:19:16.073Z,74.92
2022-09-23T16:21:43.151Z,76.65
2022-09-23T16:24:17.806Z,81.10
2022-09-23T16:26:46.545Z,84.04
2022-09-23T16:29:13.555Z,86.54
2022-09-23T16:31:40.056Z,86.75
2022-09-23T16:34:07.006Z,88.11
2022-09-23T16:36:37.488Z,88.35
2022-09-23T16:39:06.750Z,89.34
2022-09-23T16:41:33.928Z,90.13
2022-09-23T16:44:02.162Z,90.29
2022-09-23T16:46:29.380Z,91.50
2022-09-23T16:48:57.479Z,92.30
2022-09-23T16:51:30.648Z,91.88
2022-09-23T16:53:58.855Z,94.62
2022-09-23T16:56:28.893Z,93.31
2022-09-23T16:58:56.385Z,93.69
2022-09-23T17:01:43.700Z,95.57
2022-09-23T17:04:10.577Z,95.29
2022-09-23T17:06:44.818Z,97.38
2022-09-23T17:09:11.862Z,95.21
2022-09-23T17:11:38.241Z,96.51
2022-09-23T17:14:05.593Z,97.15
2022-09-23T17:16:33.656Z,97.27
2022-09-23T17:19:06.427Z,97.59
2022-09-23T17:21:32.883Z,96.61
2022-09-23T17:23:59.285Z,97.77
2022-09-23T17:26:27.092Z,97.10
2022-09-23T17:28:55.756Z,98.83
2022-09-23T17:31:23.670Z,100.00
2022-09-23T17:33:51.630Z,99.19
2022-09-23T17:36:18.900Z,98.42
2022-09-23T17:38:46.875Z,99.72
2022-09-23T17:41:14.481Z,98.69
2022-09-23T17:43:41.275Z,100.00
2022-09-23T17:46:11.217Z,100.00
2022-09-23T17:48:39.618Z,100.00
2022-09-23T17:51:11.783Z,100.00
2022-09-23T17:53:39.983Z,100.00
2022-09-23T17:56:27.104Z,100.00
2022-09-23T17:58:53.977Z,100.00
2022-09-23T18:01:25.546Z,100.00
2022-09-23T18:04:00.351Z,100.00
2022-09-23T18:06:31.315Z,100.00
2022-09-23T18:09:01.404Z,100.00
2022-09-23T18:11:29.633Z,100.00
2022-09-23T18:14:17.753Z,100.00
2022-09-23T18:16:45.884Z,100.00
2022-09-23T18:19:15.385Z,100.00
2022-09-23T18:21:44.807Z,100.00
2022-09-23T18:26:59.919Z,100.00
2022-09-23T18:29:26.695Z,100.00
2022-09-23T18:31:53.188Z,100.00
2022-09-23T18:34:20.195Z,100.00
2022-09-23T18:36:46.605Z,100.00
2022-09-23T18:39:13.392Z,100.00
2022-09-23T18:41:40.360Z,100.00
2022-09-23T18:44:06.841Z,100.00
2022-09-23T18:46:33.322Z,100.00
2022-09-23T18:49:18.731Z,100.00
2022-09-23T18:51:56.103Z,100.00
2022-09-23T18:54:25.535Z,100.00
2022-09-23T18:56:52.711Z,100.00
2022-09-23T18:59:21.111Z,100.00
2022-09-23T19:01:49.785Z,100.00
2022-09-23T19:04:18.919Z,100.00
2022-09-23T19:06:45.575Z,100.00
2022-09-23T19:09:12.426Z,100.00
2022-09-23T19:11:39.244Z,100.00
2022-09-23T19:14:10.812Z,100.00
2022-09-23T19:16:38.423Z,100.00
2022-09-23T19:19:05.397Z,100.00
2022-09-23T19:21:32.723Z,100.00
2022-09-23T19:24:03.420Z,100.00
2022-09-23T19:26:37.542Z,100.00
2022-09-23T19:29:05.872Z,100.00
2022-09-23T19:31:34.926Z,100.00
2022-09-23T19:34:10.557Z,100.00
2022-09-23T19:36:39.457Z,100.00
2022-09-23T19:39:08.696Z,100.00
2022-09-23T19:41:35.435Z,100.00
2022-09-23T19:44:03.302Z,100.00
2022-09-23T19:46:33.880Z,100.00
2022-09-23T19:49:00.616Z,100.00
2022-09-23T19:51:28.204Z,100.00
2022-09-23T19:53:54.643Z,100.00
2022-09-23T19:56:21.001Z,100.00
2022-09-23T19:58:54.154Z,100.00
2022-09-23T20:01:22.014Z,100.00
2022-09-23T20:03:49.053Z,100.00
2022-09-23T20:06:16.766Z,100.00
2022-09-23T20:08:44.289Z,100.00
2022-09-23T20:11:19.714Z,100.00
2022-09-23T20:13:47.335Z,100.00
2022-09-23T20:16:16.411Z,100.00
2022-09-23T20:18:43.740Z,100.00
2022-09-23T20:21:13.400Z,100.00
2022-09-23T20:23:40.206Z,100.00
2022-09-23T20:26:26.178Z,100.00
2022-09-23T20:28:52.823Z,100.00
2022-09-23T20:31:23.782Z,100.00
2022-09-23T20:33:52.175Z,100.00
2022-09-23T20:36:18.548Z,100.00
2022-09-23T20:38:44.934Z,100.00
2022-09-23T20:41:11.353Z,100.00
2022-09-23T20:43:37.721Z,100.00
2022-09-23T20:46:05.294Z,100.00
2022-09-23T20:48:31.766Z,100.00
2022-09-23T20:51:05.483Z,100.00
2022-09-23T20:53:32.571Z,100.00
2022-09-23T20:55:59.616Z,100.00
2022-09-23T20:58:29.038Z,100.00
2022-09-23T21:01:05.958Z,100.00
2022-09-23T21:03:32.754Z,100.00
2022-09-23T21:06:01.413Z,100.00
2022-09-23T21:08:27.894Z,100.00
2022-09-23T21:10:59.024Z,100.00
2022-09-23T21:13:25.441Z,100.00
2022-09-23T21:15:52.026Z,100.00
2022-09-23T21:18:22.381Z,100.00
2022-09-23T21:20:59.943Z,100.00
2022-09-23T21:23:33.359Z,100.00
2022-09-23T21:26:30.026Z,100.00
2022-09-23T21:29:00.799Z,100.00
2022-09-23T21:31:33.781Z,100.00
2022-09-23T21:34:05.442Z,100.00
2022-09-23T21:36:34.521Z,100.00
2022-09-23T21:39:01.720Z,100.00
2022-09-23T21:41:28.256Z,100.00
2022-09-23T21:43:57.824Z,100.00
2022-09-23T21:46:25.335Z,100.00
2022-09-23T21:48:54.878Z,100.00
2022-09-23T21:51:25.386Z,100.00
2022-09-23T21:53:54.403Z,100.00
2022-09-23T21:56:32.778Z,100.00
2022-09-23T21:58:59.897Z,100.00
2022-09-23T22:01:33.133Z,100.00
2022-09-23T22:04:05.186Z,100.00
2022-09-23T22:06:31.874Z,100.00
2022-09-23T22:09:00.837Z,100.00
2022-09-23T22:11:50.965Z,100.00
2022-09-23T22:14:19.626Z,100.00
2022-09-23T22:16:46.314Z,100.00
2022-09-23T22:19:15.585Z,100.00
2022-09-23T22:21:45.193Z,100.00
2022-09-23T22:24:12.496Z,100.00
2022-09-23T22:26:41.567Z,100.00
2022-09-23T22:29:29.721Z,100.00
2022-09-23T22:32:15.067Z,100.00
2022-09-23T22:34:50.060Z,100.00
2022-09-23T22:37:20.383Z,100.00
2022-09-23T22:39:47.003Z,100.00
2022-09-23T22:42:14.290Z,100.00
2022-09-23T22:44:40.860Z,100.00
2022-09-23T22:47:08.124Z,100.00
2022-09-23T22:49:34.909Z,100.00
2022-09-23T22:52:04.044Z,100.00
2022-09-23T22:54:33.989Z,100.00
2022-09-23T22:57:03.769Z,100.00
2022-09-23T22:59:30.298Z,100.00
2022-09-23T23:01:57.166Z,100.00
2022-09-23T23:04:23.748Z,100.00
2022-09-23T23:06:50.153Z,100.00
2022-09-23T23:09:18.181Z,100.00
2022-09-23T23:11:45.662Z,100.00
2022-09-23T23:14:13.427Z,100.00
2022-09-23T23:16:40.198Z,100.00
2022-09-23T23:19:11.968Z,100.00
2022-09-23T23:21:38.867Z,100.00
2022-09-23T23:24:05.429Z,100.00
2022-09-23T23:26:33.892Z,100.00
2022-09-23T23:29:01.538Z,100.00
2022-09-23T23:31:32.042Z,100.00
2022-09-23T23:33:58.778Z,100.00
2022-09-23T23:36:25.257Z,100.00
2022-09-23T23:38:51.745Z,100.00
2022-09-23T23:41:21.900Z,100.00
2022-09-23T23:43:54.871Z,100.00
2022-09-23T23:46:22.000Z,100.00
2022-09-23T23:48:49.129Z,100.00
2022-09-23T23:51:16.336Z,100.00
2022-09-23T23:53:43.439Z,100.00
2022-09-23T23:56:13.045Z,100.00
2022-09-23T23:58:39.968Z,100.00
